Time;durP1;ratioP1;P1;durP2;ratioP2;P2;SDS_P1;SDS_P2;PMS_P1;PMS_P2;Temp;Humidity;BMP_temperature;BMP_pressure;BME280_temperature;BME280_humidity;BME280_pressure;Samples;Min_cycle;Max_cycle;Signal;HPM_P1;HPM_P2
2021/06/24 00:00:36;;;;;;;10.70;9.80;;;19.50;73.80;;;;;;5080677;28;20424;-89
2021/06/24 00:03:02;;;;;;;9.53;8.73;;;16.70;68.70;;;;;;5079862;28;20494;-90
2021/06/24 00:05:28;;;;;;;10.93;9.80;;;;;;;;;;5082329;28;20417;-89
2021/06/24 00:07:54;;;;;;;13.23;10.60;;;17.40;69.40;;;;;;5081463;28;20533;-88
2021/06/24 00:10:20;;;;;;;10.67;9.87;;;;;;;;;;5086760;28;20409;-89
2021/06/24 00:12:45;;;;;;;11.73;10.67;;;17.30;69.50;;;;;;5083049;28;20194;-89
2021/06/24 00:15:12;;;;;;;10.53;9.17;;;17.30;69.50;;;;;;5063215;28;20437;-89
2021/06/24 00:17:37;;;;;;;10.93;10.00;;;17.40;71.30;;;;;;5080282;28;20244;-89
2021/06/24 00:20:04;;;;;;;11.60;10.50;;;17.20;69.90;;;;;;5078540;28;20785;-90
2021/06/24 00:22:29;;;;;;;10.80;9.97;;;17.30;71.20;;;;;;5079450;28;20217;-90
2021/06/24 00:24:55;;;;;;;15.77;12.17;;;;;;;;;;5078161;28;20417;-90
2021/06/24 00:27:21;;;;;;;12.40;11.40;;;17.30;70.00;;;;;;5080683;28;20175;-89
2021/06/24 00:29:47;;;;;;;12.03;10.73;;;;;;;;;;5083479;28;20415;-89
2021/06/24 00:32:12;;;;;;;11.27;10.10;;;17.20;70.40;;;;;;5083336;28;20189;-89
2021/06/24 00:34:38;;;;;;;11.63;10.60;;;17.20;70.60;;;;;;5080710;28;20421;-90
2021/06/24 00:37:04;;;;;;;11.97;10.77;;;;;;;;;;5080447;28;20532;-90
2021/06/24 00:39:29;;;;;;;10.33;9.53;;;17.20;70.00;;;;;;5079907;28;20185;-89
2021/06/24 00:41:56;;;;;;;12.63;11.63;;;18.90;75.60;;;;;;5079983;28;20936;-89
2021/06/24 00:44:22;;;;;;;11.93;10.00;;;19.00;73.90;;;;;;5078094;28;20198;-89
2021/06/24 00:46:51;;;;;;;10.33;9.50;;;;;;;;;;5080678;28;20907;-89
2021/06/24 00:49:17;;;;;;;11.40;10.30;;;17.30;70.00;;;;;;5079527;28;20196;-90
2021/06/24 00:51:43;;;;;;;10.97;9.97;;;;;;;;;;5079759;28;20409;-89
2021/06/24 00:54:12;;;;;;;14.30;11.10;;;17.40;69.90;;;;;;5079188;28;20408;-90
2021/06/24 00:56:38;;;;;;;12.67;11.07;;;17.80;71.50;;;;;;5080125;28;20440;-89
2021/06/24 00:59:07;;;;;;;12.30;11.10;;;15.20;69.40;;;;;;5078788;28;20900;-88
2021/06/24 01:01:33;;;;;;;12.30;11.20;;;17.30;70.70;;;;;;5079667;28;20428;-90
2021/06/24 01:03:59;;;;;;;12.07;11.20;;;15.70;68.70;;;;;;5079131;28;20468;-89
2021/06/24 01:06:25;;;;;;;13.07;11.73;;;17.10;71.20;;;;;;5080099;28;20409;-89
2021/06/24 01:08:51;;;;;;;13.10;11.73;;;;;;;;;;5081301;28;20603;-89
2021/06/24 01:11:17;;;;;;;12.07;11.07;;;17.10;72.20;;;;;;5079097;28;20171;-89
2021/06/24 01:13:44;;;;;;;11.93;10.73;;;17.10;72.80;;;;;;5079567;28;20919;-89
2021/06/24 01:16:10;;;;;;;13.80;12.43;;;17.10;73.00;;;;;;5082707;28;20460;-89
2021/06/24 01:18:36;;;;;;;14.87;13.57;;;17.00;72.80;;;;;;5082283;28;20456;-88
2021/06/24 01:21:03;;;;;;;13.83;12.63;;;16.90;74.10;;;;;;5082351;28;20170;-89
2021/06/24 01:23:35;;;;;;;12.90;11.80;;;16.90;73.60;;;;;;5100637;28;20491;-90
2021/06/24 01:26:01;;;;;;;15.63;12.47;;;19.10;77.70;;;;;;5083585;28;20454;-89
2021/06/24 01:28:27;;;;;;;15.93;12.37;;;;;;;;;;5082932;28;20420;-89
2021/06/24 01:30:52;;;;;;;12.77;11.70;;;17.00;73.60;;;;;;5082688;28;20165;-89
2021/06/24 01:33:18;;;;;;;12.83;11.53;;;;;;;;;;5104913;28;20485;-90
2021/06/24 01:35:44;;;;;;;12.53;11.47;;;17.00;73.70;;;;;;5107440;28;20656;-89
2021/06/24 01:38:13;;;;;;;13.33;12.10;;;17.00;74.10;;;;;;5095931;28;20808;-89
2021/06/24 01:40:41;;;;;;;13.97;12.63;;;16.90;73.80;;;;;;5085688;28;20177;-90
2021/06/24 01:43:07;;;;;;;14.77;13.17;;;16.90;74.00;;;;;;5085343;28;20464;-90
2021/06/24 01:45:33;;;;;;;13.50;12.10;;;;;;;;;;5082603;28;20414;-90
2021/06/24 01:47:58;;;;;;;15.80;12.97;;;17.00;75.00;;;;;;5103355;28;20198;-90
2021/06/24 01:50:24;;;;;;;13.13;12.13;;;15.40;74.60;;;;;;5084095;28;20412;-90
2021/06/24 01:52:50;;;;;;;14.70;13.23;;;;;;;;;;5084362;28;20413;-90
2021/06/24 01:55:17;;;;;;;14.13;12.83;;;17.00;76.50;;;;;;5083750;28;20189;-90
2021/06/24 01:57:43;;;;;;;13.97;12.43;;;17.00;73.80;;;;;;5084691;28;20441;-89
2021/06/24 02:00:11;;;;;;;15.00;13.70;;;16.90;73.90;;;;;;5103032;28;20945;-89
2021/06/24 02:02:37;;;;;;;14.43;13.13;;;17.10;76.00;;;;;;5101630;28;20496;-90
2021/06/24 02:05:05;;;;;;;14.37;13.17;;;16.90;74.40;;;;;;5088967;28;20424;-88
2021/06/24 02:07:30;;;;;;;15.13;13.77;;;16.90;74.60;;;;;;5084107;28;20641;-90
2021/06/24 02:09:56;;;;;;;15.20;13.70;;;;;;;;;;5100907;28;20464;-89
2021/06/24 02:12:22;;;;;;;14.27;12.80;;;17.00;74.00;;;;;;5101418;28;20260;-89
2021/06/24 02:14:48;;;;;;;16.80;13.77;;;;;;;;;;5101702;28;20412;-90
2021/06/24 02:17:14;;;;;;;15.27;13.27;;;17.00;74.20;;;;;;5102249;28;20536;-90
2021/06/24 02:19:39;;;;;;;14.90;13.40;;;17.00;74.30;;;;;;5083697;28;20419;-89
2021/06/24 02:22:05;;;;;;;16.50;14.50;;;17.00;74.40;;;;;;5084509;28;20257;-90
2021/06/24 02:24:31;;;;;;;15.40;13.10;;;17.00;74.20;;;;;;5083199;28;20181;-90
2021/06/24 02:26:57;;;;;;;15.43;14.23;;;;;;;;;;5092051;28;20170;-90
2021/06/24 02:29:22;;;;;;;16.03;14.43;;;17.00;73.70;;;;;;5115416;28;20630;-90
2021/06/24 02:31:48;;;;;;;15.07;13.77;;;16.90;74.60;;;;;;5096289;28;20415;-90
2021/06/24 02:34:16;;;;;;;16.30;14.70;;;16.90;74.50;;;;;;5084730;28;20177;-90
2021/06/24 02:36:42;;;;;;;16.67;13.43;;;16.90;74.50;;;;;;5083073;28;20181;-90
2021/06/24 02:39:07;;;;;;;17.30;15.90;;;16.90;74.90;;;;;;5102523;28;20419;-90
2021/06/24 02:41:35;;;;;;;15.40;14.00;;;;;;;;;;5084095;28;20194;-90
2021/06/24 02:44:02;;;;;;;16.70;15.10;;;18.30;77.90;;;;;;5084339;28;20201;-89
2021/06/24 02:46:27;;;;;;;15.93;14.40;;;16.80;75.50;;;;;;5101310;28;20404;-90
2021/06/24 02:48:53;;;;;;;17.53;15.73;;;;;;;;;;5083407;28;20834;-89
2021/06/24 02:51:19;;;;;;;16.70;14.97;;;16.90;75.30;;;;;;5082206;28;20534;-89
2021/06/24 02:53:45;;;;;;;16.97;14.60;;;;;;;;;;5100401;28;20417;-90
2021/06/24 02:56:10;;;;;;;20.10;15.53;;;16.90;74.60;;;;;;5100955;28;20159;-90
2021/06/24 02:58:36;;;;;;;17.30;15.77;;;16.90;75.20;;;;;;5100000;28;20416;-90
2021/06/24 03:01:02;;;;;;;17.13;15.40;;;14.80;76.00;;;;;;5083648;28;20166;-90
2021/06/24 03:03:28;;;;;;;18.50;16.63;;;16.70;75.30;;;;;;5083012;28;20209;-89
2021/06/24 03:05:54;;;;;;;17.33;15.57;;;;;;;;;;5084416;28;20428;-90
2021/06/24 03:08:21;;;;;;;22.10;16.77;;;16.80;75.80;;;;;;5101720;28;20170;-90
2021/06/24 03:10:47;;;;;;;16.50;14.90;;;16.80;75.70;;;;;;5102222;28;20491;-89
2021/06/24 03:13:13;;;;;;;16.90;15.20;;;16.90;75.30;;;;;;5083443;28;20505;-88
2021/06/24 03:15:39;;;;;;;16.90;15.50;;;16.90;75.30;;;;;;5084027;28;20834;-89
2021/06/24 03:18:05;;;;;;;15.73;14.43;;;16.90;76.60;;;;;;5084328;28;20193;-89
2021/06/24 03:20:31;;;;;;;18.73;15.87;;;16.90;75.40;;;;;;5084698;28;20495;-89
2021/06/24 03:23:01;;;;;;;16.13;14.80;;;16.90;76.10;;;;;;5083666;28;20484;-88
2021/06/24 03:25:27;;;;;;;16.70;15.37;;;16.90;74.70;;;;;;5084465;28;20423;-89
2021/06/24 03:27:53;;;;;;;17.00;15.30;;;16.80;74.90;;;;;;5084049;28;20484;-90
2021/06/24 03:30:20;;;;;;;16.70;15.20;;;17.00;75.10;;;;;;5102347;28;20408;-90
2021/06/24 03:32:46;;;;;;;17.80;15.97;;;17.00;75.60;;;;;;5084066;28;20430;-90
2021/06/24 03:35:12;;;;;;;15.10;13.80;;;16.90;74.70;;;;;;5083973;28;20448;-90
2021/06/24 03:37:38;;;;;;;16.30;14.60;;;16.90;74.70;;;;;;5085535;28;20181;-90
2021/06/24 03:40:09;;;;;;;15.70;14.10;;;17.00;75.30;;;;;;5102343;28;20898;-90
2021/06/24 03:42:35;;;;;;;16.60;15.07;;;17.10;76.50;;;;;;5084296;28;20470;-89
2021/06/24 03:45:03;;;;;;;16.60;14.90;;;17.00;74.60;;;;;;5083851;28;20431;-90
2021/06/24 03:47:29;;;;;;;17.17;15.40;;;17.00;75.30;;;;;;5084927;28;20408;-90
2021/06/24 03:49:55;;;;;;;15.67;14.27;;;;;;;;;;5083975;28;20430;-90
2021/06/24 03:52:20;;;;;;;18.50;16.27;;;17.00;75.30;;;;;;5084519;28;20683;-89
2021/06/24 03:54:46;;;;;;;17.77;16.17;;;17.00;76.10;;;;;;5083041;28;20425;-88
2021/06/24 03:57:13;;;;;;;16.23;14.73;;;;;;;;;;5083101;28;20170;-89
2021/06/24 03:59:38;;;;;;;15.83;14.43;;;16.60;77.00;;;;;;5103126;28;20182;-89
2021/06/24 04:02:04;;;;;;;17.30;15.70;;;;;;;;;;5085696;28;20461;-88
2021/06/24 04:04:30;;;;;;;18.00;16.30;;;16.90;76.40;;;;;;5105983;28;20169;-89
2021/06/24 04:06:56;;;;;;;15.90;14.50;;;;;;;;;;5089616;28;20419;-90
2021/06/24 04:09:22;;;;;;;16.63;15.07;;;16.80;76.80;;;;;;5085334;28;20184;-89
2021/06/24 04:11:48;;;;;;;17.67;15.83;;;;;;;;;;5101999;28;20504;-89
2021/06/24 04:14:13;;;;;;;16.40;14.80;;;16.90;76.40;;;;;;5100157;28;20196;-89
2021/06/24 04:16:39;;;;;;;16.97;15.17;;;16.90;76.40;;;;;;5081333;28;20826;-88
2021/06/24 04:19:05;;;;;;;18.33;16.60;;;;;;;;;;5081216;28;20178;-88
2021/06/24 04:21:31;;;;;;;18.77;15.90;;;16.90;75.50;;;;;;5081093;28;20174;-89
2021/06/24 04:23:56;;;;;;;17.10;15.47;;;17.00;75.80;;;;;;5083855;28;20559;-89
2021/06/24 04:26:22;;;;;;;15.60;14.40;;;;;;;;;;5083392;28;20170;-88
2021/06/24 04:28:49;;;;;;;19.00;15.70;;;;;;;;;;5084978;28;20170;-89
2021/06/24 04:31:15;;;;;;;17.10;15.60;;;16.90;78.10;;;;;;5105098;28;20396;-90
2021/06/24 04:33:40;;;;;;;17.03;15.53;;;16.90;76.40;;;;;;5088546;28;20415;-89
2021/06/24 04:36:07;;;;;;;19.37;15.30;;;16.90;76.00;;;;;;5106485;28;20172;-89
2021/06/24 04:38:35;;;;;;;17.23;15.17;;;16.90;75.90;;;;;;5085005;28;20194;-89
2021/06/24 04:41:01;;;;;;;17.20;15.60;;;16.00;76.60;;;;;;5103579;28;20438;-90
2021/06/24 04:43:27;;;;;;;18.20;16.30;;;;;;;;;;5084319;28;20467;-89
2021/06/24 04:45:53;;;;;;;17.90;16.17;;;16.90;75.70;;;;;;5104224;28;20641;-88
2021/06/24 04:48:19;;;;;;;16.97;15.17;;;16.90;76.20;;;;;;5093081;28;20406;-90
2021/06/24 04:50:45;;;;;;;17.13;15.60;;;16.90;76.30;;;;;;5100490;28;20471;-89
2021/06/24 04:53:11;;;;;;;17.30;15.83;;;19.60;80.50;;;;;;5084544;28;20423;-87
2021/06/24 04:55:40;;;;;;;18.00;16.33;;;;;;;;;;5083999;28;20813;-89
2021/06/24 04:58:07;;;;;;;19.10;17.13;;;17.00;75.30;;;;;;5085315;28;20654;-89
2021/06/24 05:00:34;;;;;;;18.80;16.80;;;17.00;75.80;;;;;;5107604;28;20400;-90
2021/06/24 05:03:01;;;;;;;18.90;16.90;;;17.00;75.50;;;;;;5090683;28;20524;-89
2021/06/24 05:05:27;;;;;;;16.83;15.23;;;19.70;80.20;;;;;;5109251;28;20770;-90
2021/06/24 05:07:53;;;;;;;17.13;15.40;;;17.10;75.60;;;;;;5090668;28;20416;-89
2021/06/24 05:10:20;;;;;;;17.97;16.37;;;17.10;75.60;;;;;;5105972;28;20411;-90
2021/06/24 05:12:49;;;;;;;18.17;16.27;;;17.20;75.40;;;;;;5088827;28;20416;-88
2021/06/24 05:15:15;;;;;;;18.70;17.00;;;17.10;75.90;;;;;;5085838;28;20414;-89
2021/06/24 05:17:42;;;;;;;17.93;16.20;;;17.20;75.20;;;;;;5102033;28;20457;-89
2021/06/24 05:20:09;;;;;;;19.33;16.93;;;17.30;75.30;;;;;;5084609;28;20421;-89
2021/06/24 05:22:36;;;;;;;19.27;16.60;;;17.40;74.30;;;;;;5084460;28;20471;-89
2021/06/24 05:25:04;;;;;;;19.77;17.90;;;17.50;74.00;;;;;;5103858;28;20810;-88
2021/06/24 05:27:30;;;;;;;21.13;16.20;;;17.80;77.30;;;;;;5084648;28;20419;-90
2021/06/24 05:29:55;;;;;;;21.23;16.20;;;17.60;73.00;;;;;;5103410;28;20408;-89
2021/06/24 05:32:21;;;;;;;18.83;16.93;;;17.70;73.20;;;;;;5084534;28;20193;-88
2021/06/24 05:34:47;;;;;;;16.37;15.03;;;;;;;;;;5084359;28;20188;-89
2021/06/24 05:37:13;;;;;;;21.60;15.73;;;17.90;71.90;;;;;;5083738;28;20178;-89
2021/06/24 05:39:38;;;;;;;16.30;14.80;;;20.30;77.70;;;;;;5100240;28;20507;-88
2021/06/24 05:42:06;;;;;;;18.00;16.10;;;17.90;71.00;;;;;;5084738;28;20188;-89
2021/06/24 05:44:32;;;;;;;17.87;15.57;;;18.00;71.70;;;;;;5082647;28;20242;-85
2021/06/24 05:47:00;;;;;;;19.37;17.20;;;18.10;71.20;;;;;;4349556;28;10000700;-89
2021/06/24 05:49:29;;;;;;;18.20;16.63;;;18.20;79.10;;;;;;5040147;28;20172;-89
2021/06/24 05:51:55;;;;;;;18.60;17.00;;;21.30;75.60;;;;;;5065193;28;20791;-88
2021/06/24 05:54:22;;;;;;;18.50;16.60;;;18.20;72.60;;;;;;5046826;28;20453;-90
2021/06/24 05:56:48;;;;;;;18.67;16.97;;;18.30;75.00;;;;;;5067912;28;20421;-89
2021/06/24 05:59:16;;;;;;;21.17;16.83;;;18.60;82.60;;;;;;5067087;28;20421;-90
2021/06/24 06:01:46;;;;;;;17.83;16.43;;;19.30;71.20;;;;;;5066884;28;20206;-90
2021/06/24 06:05:19;;;;;;;18.33;16.67;;;16.50;70.30;;;;;;5051428;28;20520;-94
2021/06/24 06:08:16;;;;;;;18.93;17.13;;;21.50;74.20;;;;;;5028735;28;20473;-91
2021/06/24 06:17:39;;;;;;;19.13;17.23;;;18.50;69.40;;;;;;5045953;22;20450;-91
2021/06/24 06:23:17;;;;;;;18.90;17.10;;;21.00;72.80;;;;;;5096400;22;20495;-88
2021/06/24 06:25:44;;;;;;;20.33;18.30;;;18.30;69.60;;;;;;5072256;28;20793;-89
2021/06/24 06:28:13;;;;;;;20.90;18.30;;;18.30;69.30;;;;;;5089927;28;20425;-88
2021/06/24 06:30:39;;;;;;;21.73;18.20;;;18.90;74.80;;;;;;5092447;28;20865;-91
2021/06/24 06:33:11;;;;;;;19.83;17.93;;;22.80;84.10;;;;;;5088041;28;20417;-90
2021/06/24 06:35:38;;;;;;;20.83;18.80;;;18.30;68.80;;;;;;5092835;28;20166;-88
2021/06/24 06:38:08;;;;;;;19.40;17.33;;;20.60;78.60;;;;;;5078524;28;20421;-90
2021/06/24 06:40:39;;;;;;;20.73;18.63;;;18.40;69.40;;;;;;5093970;28;20416;-90
2021/06/24 06:43:21;;;;;;;18.97;17.07;;;19.40;70.80;;;;;;5072079;28;20488;-89
2021/06/24 06:45:49;;;;;;;18.30;16.60;;;18.40;68.80;;;;;;5071671;28;20440;-90
2021/06/24 06:48:26;;;;;;;24.73;18.13;;;18.20;68.90;;;;;;5072314;28;20406;-91
2021/06/24 06:51:09;;;;;;;21.37;19.10;;;21.40;73.90;;;;;;5054387;28;20452;-92
2021/06/24 06:53:34;;;;;;;20.67;17.00;;;18.50;68.80;;;;;;5056274;28;20417;-88
2021/06/24 06:56:08;;;;;;;20.63;18.50;;;18.90;75.10;;;;;;5073628;28;20524;-92
2021/06/24 06:58:38;;;;;;;20.40;17.20;;;22.00;75.70;;;;;;5038241;28;20183;-91
2021/06/24 07:01:04;;;;;;;20.10;17.47;;;21.30;81.30;;;;;;5056677;28;20429;-90
2021/06/24 07:03:33;;;;;;;19.30;17.50;;;20.60;73.30;;;;;;5074145;28;20449;-89
2021/06/24 07:06:02;;;;;;;19.07;17.27;;;19.60;76.10;;;;;;5070523;28;20199;-91
2021/06/24 07:08:29;;;;;;;27.43;20.17;;;24.80;80.70;;;;;;5056802;28;20489;-89
2021/06/24 07:10:58;;;;;;;23.97;19.17;;;19.30;68.90;;;;;;5058318;28;20417;-89
2021/06/24 07:13:28;;;;;;;17.73;16.13;;;25.20;87.50;;;;;;5055902;28;20398;-90
2021/06/24 07:15:56;;;;;;;20.47;18.40;;;19.90;63.10;;;;;;5054253;28;20515;-90
2021/06/24 07:18:25;;;;;;;23.77;15.90;;;19.80;62.20;;;;;;5054011;28;20421;-88
2021/06/24 07:20:51;;;;;;;19.33;15.97;;;20.50;83.40;;;;;;5050097;28;20594;-86
2021/06/24 07:23:17;;;;;;;19.77;17.70;;;20.80;58.80;;;;;;5055658;28;20595;-86
2021/06/24 07:25:42;;;;;;;20.70;18.70;;;20.20;60.20;;;;;;5061438;28;20171;-88
2021/06/24 07:28:08;;;;;;;19.07;17.27;;;21.50;60.80;;;;;;5062027;28;20198;-87
2021/06/24 07:30:34;;;;;;;20.00;18.30;;;22.30;62.20;;;;;;5043023;28;20179;-87
2021/06/24 07:33:00;;;;;;;26.10;18.33;;;21.50;62.80;;;;;;5057104;28;20175;-88
2021/06/24 07:35:28;;;;;;;20.03;18.13;;;21.90;63.50;;;;;;4697411;28;10000476;-87
2021/06/24 07:37:54;;;;;;;20.47;18.57;;;19.40;62.70;;;;;;5049052;28;20506;-88
2021/06/24 07:40:21;;;;;;;21.13;18.93;;;22.40;61.90;;;;;;5056620;28;20406;-87
2021/06/24 07:42:47;;;;;;;20.30;17.90;;;22.60;62.60;;;;;;5037547;28;20217;-88
2021/06/24 07:45:13;;;;;;;20.90;18.90;;;21.40;57.00;;;;;;5056530;28;20436;-85
2021/06/24 07:47:39;;;;;;;19.67;17.90;;;21.60;57.00;;;;;;5059850;28;20175;-88
2021/06/24 07:50:06;;;;;;;21.00;19.20;;;20.10;55.80;;;;;;5060315;28;20443;-89
2021/06/24 07:52:31;;;;;;;20.63;18.70;;;21.70;57.20;;;;;;5040765;28;20410;-87
2021/06/24 07:54:57;;;;;;;19.63;18.00;;;20.50;55.50;;;;;;5057556;28;20820;-89
2021/06/24 07:57:23;;;;;;;20.00;18.30;;;23.00;56.80;;;;;;5041099;28;20187;-88
2021/06/24 07:59:49;;;;;;;19.30;17.70;;;25.60;60.10;;;;;;5040111;28;20429;-88
2021/06/24 08:02:14;;;;;;;21.50;19.80;;;24.40;57.70;;;;;;5040162;28;20179;-88
2021/06/24 08:04:40;;;;;;;20.73;18.67;;;26.50;59.20;;;;;;5060667;28;20205;-89
2021/06/24 08:07:06;;;;;;;21.10;19.00;;;26.20;55.30;;;;;;5059138;28;20218;-87
2021/06/24 08:09:32;;;;;;;20.07;17.93;;;26.40;54.90;;;;;;5040629;28;20181;-89
2021/06/24 08:11:58;;;;;;;19.43;17.73;;;28.40;53.70;;;;;;5072609;28;20413;-88
2021/06/24 08:14:23;;;;;;;21.87;19.77;;;27.70;54.30;;;;;;5080113;28;20413;-88
2021/06/24 08:16:50;;;;;;;18.87;17.30;;;24.00;50.70;;;;;;5078893;28;20177;-88
2021/06/24 08:19:16;;;;;;;21.73;19.70;;;25.80;53.40;;;;;;5078343;28;20640;-88
2021/06/24 08:21:42;;;;;;;20.03;18.33;;;25.70;52.60;;;;;;5081146;28;20425;-89
2021/06/24 08:24:08;;;;;;;20.70;18.80;;;24.60;50.10;;;;;;5081763;28;20233;-86
2021/06/24 08:26:33;;;;;;;20.57;18.63;;;25.00;52.90;;;;;;5056989;28;20183;-90
2021/06/24 08:28:59;;;;;;;21.37;19.60;;;27.70;51.60;;;;;;5054806;28;20583;-89
2021/06/24 08:31:27;;;;;;;21.73;19.43;;;26.60;50.20;;;;;;5074838;28;20253;-89
2021/06/24 08:33:53;;;;;;;23.10;21.10;;;26.00;51.30;;;;;;5059432;28;20546;-89
2021/06/24 08:36:20;;;;;;;23.73;21.57;;;25.40;50.10;;;;;;5051730;28;20437;-89
2021/06/24 08:38:45;;;;;;;21.37;19.40;;;24.80;52.90;;;;;;5055955;28;20175;-88
2021/06/24 08:41:14;;;;;;;23.17;21.20;;;26.90;52.80;;;;;;5036477;28;20479;-88
2021/06/24 08:43:40;;;;;;;21.53;19.60;;;22.60;50.90;;;;;;5055279;28;20207;-89
2021/06/24 08:46:06;;;;;;;21.50;19.60;;;27.00;53.70;;;;;;5057256;28;20969;-89
2021/06/24 08:48:34;;;;;;;22.87;20.83;;;27.40;53.70;;;;;;5055205;28;20474;-89
2021/06/24 08:51:00;;;;;;;20.30;18.60;;;23.90;52.40;;;;;;5068869;28;20406;-87
2021/06/24 08:53:26;;;;;;;22.20;20.43;;;24.10;51.50;;;;;;5071659;28;20414;-88
2021/06/24 08:55:56;;;;;;;23.60;21.23;;;24.20;51.70;;;;;;5069403;28;20467;-86
2021/06/24 08:58:22;;;;;;;22.13;20.20;;;26.10;53.10;;;;;;5057208;28;20418;-89
2021/06/24 09:00:48;;;;;;;22.23;20.10;;;26.20;52.70;;;;;;5054504;28;20509;-88
2021/06/24 09:03:23;;;;;;;19.83;17.77;;;25.50;52.00;;;;;;5056682;28;20611;-88
2021/06/24 09:05:51;;;;;;;21.80;19.80;;;28.80;50.10;;;;;;5038784;28;20513;-89
2021/06/24 09:08:42;;;;;;;20.60;18.90;;;25.40;49.60;;;;;;5057514;28;20405;-89
2021/06/24 09:11:13;;;;;;;20.93;19.23;;;25.80;47.60;;;;;;5055598;28;20441;-88
2021/06/24 09:13:39;;;;;;;20.27;18.50;;;26.50;46.50;;;;;;5056169;28;20417;-90
2021/06/24 09:16:18;;;;;;;21.13;19.13;;;29.70;47.60;;;;;;5060927;28;20537;-90
2021/06/24 09:18:44;;;;;;;21.90;20.20;;;30.00;46.90;;;;;;5055305;28;20500;-86
2021/06/24 09:21:27;;;;;;;22.47;20.67;;;29.50;47.70;;;;;;5057629;28;20418;-87
2021/06/24 09:23:53;;;;;;;25.13;22.97;;;26.80;46.90;;;;;;5016754;28;20475;-88
2021/06/24 09:26:20;;;;;;;22.90;21.10;;;25.80;56.40;;;;;;5019111;28;20440;-88
2021/06/24 09:28:50;;;;;;;24.60;22.63;;;25.00;47.10;;;;;;5019631;28;20424;-88
2021/06/24 09:31:32;;;;;;;25.30;22.70;;;27.50;50.20;;;;;;5032439;28;20446;-87
2021/06/24 09:34:09;;;;;;;25.37;23.07;;;24.70;49.10;;;;;;5037875;28;20415;-88
2021/06/24 09:36:44;;;;;;;24.27;22.27;;;24.90;48.20;;;;;;5058938;28;20419;-86
2021/06/24 09:39:44;;;;;;;26.27;23.57;;;27.40;50.20;;;;;;5045429;28;20499;-89
2021/06/24 09:42:14;;;;;;;26.73;24.53;;;25.90;47.10;;;;;;5049201;28;20505;-89
2021/06/24 09:44:42;;;;;;;28.67;25.77;;;26.50;47.70;;;;;;5049304;28;20429;-91
2021/06/24 09:47:29;;;;;;;26.00;23.77;;;27.40;47.90;;;;;;5046488;28;20451;-92
2021/06/24 09:50:06;;;;;;;28.37;25.37;;;27.70;47.30;;;;;;5045964;28;20468;-92
2021/06/24 09:52:38;;;;;;;28.30;25.73;;;27.40;52.60;;;;;;5047329;28;20418;-87
2021/06/24 09:55:25;;;;;;;26.63;24.43;;;28.10;47.30;;;;;;5051271;28;20490;-92
2021/06/24 09:57:51;;;;;;;29.50;26.90;;;28.30;45.90;;;;;;5050897;28;20156;-94
2021/06/24 10:00:28;;;;;;;25.93;23.83;;;30.30;46.70;;;;;;5053876;28;20427;-93
2021/06/24 10:03:12;;;;;;;29.60;27.00;;;26.40;42.10;;;;;;5055752;28;20450;-90
2021/06/24 10:05:44;;;;;;;29.67;26.87;;;27.50;45.00;;;;;;5049774;28;20422;-92
2021/06/24 10:08:12;;;;;;;30.70;28.10;;;26.50;44.80;;;;;;5052435;28;20407;-89
2021/06/24 10:10:50;;;;;;;30.47;27.87;;;25.80;49.40;;;;;;5052167;28;20431;-89
2021/06/24 10:13:29;;;;;;;29.07;26.07;;;25.70;50.20;;;;;;5049900;28;20882;-92
2021/06/24 10:15:57;;;;;;;27.17;24.90;;;26.30;48.00;;;;;;4689725;28;9999905;-91
2021/06/24 10:18:30;;;;;;;26.37;24.27;;;26.40;45.10;;;;;;5044879;28;20234;-91
2021/06/24 10:20:56;;;;;;;28.03;25.53;;;27.20;43.40;;;;;;5042968;28;20427;-93
2021/06/24 10:23:28;;;;;;;26.07;23.77;;;27.00;45.90;;;;;;5061300;28;20777;-93
2021/06/24 10:25:54;;;;;;;24.30;22.37;;;27.40;46.40;;;;;;5041709;28;20465;-92
2021/06/24 10:28:20;;;;;;;24.23;22.10;;;29.30;45.90;;;;;;5037805;28;20472;-89
2021/06/24 10:30:46;;;;;;;24.27;22.00;;;28.40;47.20;;;;;;5039692;28;20430;-89
2021/06/24 10:33:16;;;;;;;21.77;19.77;;;29.40;43.10;;;;;;5038522;28;20731;-89
2021/06/24 10:35:53;;;;;;;18.77;17.30;;;32.20;41.60;;;;;;5042725;28;20168;-89
2021/06/24 10:38:22;;;;;;;20.00;18.30;;;29.00;41.00;;;;;;5048438;28;20435;-89
2021/06/24 10:41:00;;;;;;;19.63;18.23;;;29.10;40.20;;;;;;5033604;28;20431;-92
2021/06/24 10:43:52;;;;;;;26.10;24.10;;;29.50;40.40;;;;;;5048618;28;20418;-88
2021/06/24 10:46:21;;;;;;;23.13;21.60;;;32.60;42.80;;;;;;5050709;28;20480;-91
2021/06/24 10:48:50;;;;;;;22.87;20.87;;;29.90;41.70;;;;;;5047468;28;20421;-90
2021/06/24 10:51:17;;;;;;;22.60;20.83;;;28.20;41.60;;;;;;5046964;28;20427;-87
2021/06/24 10:53:51;;;;;;;19.43;17.80;;;26.00;41.30;;;;;;5063087;28;20463;-90
2021/06/24 10:56:36;;;;;;;18.10;16.70;;;28.50;40.90;;;;;;5050768;28;20750;-89
2021/06/24 10:59:30;;;;;;;16.83;15.63;;;28.50;40.60;;;;;;5053927;28;20435;-87
2021/06/24 11:02:13;;;;;;;30.20;25.80;;;28.10;40.50;;;;;;5048141;28;20912;-88
2021/06/24 11:04:41;;;;;;;17.70;16.37;;;28.30;41.60;;;;;;5049519;28;20940;-90
2021/06/24 11:07:19;;;;;;;18.90;17.43;;;30.60;41.70;;;;;;5044913;28;20486;-89
2021/06/24 11:10:20;;;;;;;19.57;18.17;;;29.70;41.50;;;;;;5046515;28;20425;-89
2021/06/24 11:12:59;;;;;;;19.10;17.70;;;29.30;40.90;;;;;;5048797;28;20455;-90
2021/06/24 11:15:55;;;;;;;24.93;22.80;;;28.50;40.60;;;;;;5050115;28;20430;-88
2021/06/24 11:18:45;;;;;;;18.50;17.10;;;30.60;42.70;;;;;;5063823;28;20407;-89
2021/06/24 11:21:18;;;;;;;17.70;16.27;;;28.20;40.70;;;;;;5049008;28;21122;-88
2021/06/24 11:23:58;;;;;;;19.60;18.10;;;30.60;43.30;;;;;;5066997;28;20472;-89
2021/06/24 11:26:41;;;;;;;18.73;17.43;;;27.70;41.60;;;;;;5072868;28;20485;-89
2021/06/24 11:29:43;;;;;;;18.63;17.00;;;28.80;42.20;;;;;;5071699;28;20410;-92
2021/06/24 11:32:45;;;;;;;19.27;17.53;;;29.30;45.60;;;;;;5072295;28;20433;-91
2021/06/24 11:35:18;;;;;;;19.27;17.47;;;27.50;44.10;;;;;;5072634;28;20398;-86
2021/06/24 11:38:02;;;;;;;19.00;17.60;;;27.00;45.30;;;;;;5067507;28;20419;-89
2021/06/24 11:40:37;;;;;;;19.43;17.97;;;24.40;43.70;;;;;;5051074;28;20465;-91
2021/06/24 11:43:07;;;;;;;19.80;18.00;;;27.20;44.60;;;;;;5028254;28;20434;-86
2021/06/24 11:45:33;;;;;;;18.70;17.30;;;28.70;46.20;;;;;;5067010;28;20409;-88
2021/06/24 11:47:59;;;;;;;20.50;18.60;;;27.80;45.40;;;;;;5067797;28;20457;-89
2021/06/24 12:04:13;;;;;;;17.63;16.37;;;25.90;45.40;;;;;;5066244;28;20776;-89
2021/06/24 12:06:56;;;;;;;19.70;18.30;;;25.90;45.20;;;;;;5051501;28;20920;-88
2021/06/24 12:09:39;;;;;;;16.93;15.70;;;26.50;43.70;;;;;;5049609;28;20434;-92
2021/06/24 12:12:09;;;;;;;16.83;15.77;;;26.40;43.70;;;;;;5065176;28;20441;-92
2021/06/24 12:14:39;;;;;;;18.10;16.57;;;26.50;44.00;;;;;;5042551;28;20493;-90
2021/06/24 12:17:14;;;;;;;18.40;16.90;;;26.70;43.70;;;;;;5043443;28;20928;-92
2021/06/24 12:19:56;;;;;;;16.57;15.57;;;26.60;43.90;;;;;;5059825;28;20417;-89
2021/06/24 12:22:31;;;;;;;16.43;15.13;;;26.00;43.60;;;;;;5059164;28;20453;-89
2021/06/24 12:24:57;;;;;;;17.27;16.07;;;26.20;43.70;;;;;;5060303;28;20406;-89
2021/06/24 12:27:24;;;;;;;16.33;15.03;;;25.70;43.60;;;;;;5100394;22;20491;-88
2021/06/24 12:29:52;;;;;;;18.50;16.80;;;27.30;46.40;;;;;;5081247;28;20182;-89
2021/06/24 12:32:19;;;;;;;17.57;16.17;;;26.80;46.00;;;;;;5076483;28;20418;-88
2021/06/24 12:34:46;;;;;;;17.70;16.03;;;26.10;45.50;;;;;;5060143;28;20429;-89
2021/06/24 12:37:29;;;;;;;16.00;14.40;;;27.30;46.50;;;;;;5059531;28;20478;-89
2021/06/24 12:39:55;;;;;;;14.60;13.67;;;27.50;46.00;;;;;;5064670;28;20421;-89
2021/06/24 12:42:22;;;;;;;15.87;14.67;;;28.80;46.20;;;;;;4364499;28;10000681;-89
2021/06/24 12:44:53;;;;;;;16.60;15.40;;;25.10;45.40;;;;;;5062161;28;20226;-88
2021/06/24 12:47:45;;;;;;;16.17;15.00;;;25.70;45.60;;;;;;5058381;28;20430;-87
2021/06/24 12:50:29;;;;;;;17.23;15.53;;;25.40;45.40;;;;;;5060296;28;20433;-87
2021/06/24 12:52:58;;;;;;;17.07;15.67;;;25.60;44.70;;;;;;5060854;28;20467;-90
2021/06/24 12:55:37;;;;;;;17.33;16.00;;;26.70;45.30;;;;;;5060773;28;20413;-89
2021/06/24 12:58:11;;;;;;;16.20;14.90;;;26.00;43.80;;;;;;5080325;28;20604;-88
2021/06/24 13:00:39;;;;;;;15.83;14.40;;;26.10;44.90;;;;;;5066815;28;20421;-89
2021/06/24 13:03:09;;;;;;;14.97;14.03;;;26.20;44.50;;;;;;5064156;28;20428;-89
2021/06/24 13:05:35;;;;;;;12.80;11.90;;;26.20;43.80;;;;;;5082357;28;20417;-89
2021/06/24 13:08:07;;;;;;;14.93;13.77;;;28.90;44.40;;;;;;5084341;28;20443;-88
2021/06/24 13:10:49;;;;;;;14.37;13.37;;;28.70;42.50;;;;;;5083717;28;20457;-88